createdAt,value
2022-08-27T00:02:17.654Z,20.20
2022-08-27T00:04:44.877Z,20.20
2022-08-27T00:07:12.047Z,20.20
2022-08-27T00:09:39.350Z,20.20
2022-08-27T00:12:06.910Z,20.20
2022-08-27T00:14:34.396Z,20.20
2022-08-27T00:17:01.538Z,20.20
2022-08-27T00:19:28.691Z,20.20
2022-08-27T00:21:55.896Z,20.20
2022-08-27T00:24:23.388Z,20.10
2022-08-27T00:26:53.507Z,20.10
2022-08-27T00:29:20.652Z,20.00
2022-08-27T00:31:49.502Z,20.00
2022-08-27T00:34:22.668Z,20.00
2022-08-27T00:36:49.432Z,19.90
2022-08-27T00:39:16.371Z,19.90
2022-08-27T00:41:43.414Z,19.80
2022-08-27T00:44:10.443Z,19.90
2022-08-27T00:46:38.985Z,19.80
2022-08-27T00:49:19.542Z,19.80
2022-08-27T00:51:51.855Z,19.80
2022-08-27T00:54:19.033Z,19.80
2022-08-27T00:56:51.373Z,19.70
2022-08-27T00:59:21.225Z,19.80
2022-08-27T01:02:08.568Z,19.70
2022-08-27T01:04:36.203Z,19.80
2022-08-27T01:07:03.537Z,19.70
2022-08-27T01:09:30.717Z,19.70
2022-08-27T01:11:58.185Z,19.60
2022-08-27T01:14:25.311Z,19.60
2022-08-27T01:16:54.377Z,19.60
2022-08-27T01:19:36.148Z,19.50
2022-08-27T01:22:09.239Z,19.50
2022-08-27T01:24:48.924Z,19.40
2022-08-27T01:27:20.348Z,19.30
2022-08-27T01:29:47.374Z,19.30
2022-08-27T01:32:16.289Z,19.30
2022-08-27T01:34:43.682Z,19.30
2022-08-27T01:37:11.418Z,19.20
2022-08-27T01:39:39.831Z,19.10
2022-08-27T01:42:09.841Z,19.10
2022-08-27T01:44:56.975Z,19.00
2022-08-27T01:47:24.891Z,18.90
2022-08-27T01:49:58.596Z,18.90
2022-08-27T01:52:27.234Z,18.80
2022-08-27T01:54:54.677Z,18.80
2022-08-27T01:57:25.833Z,18.80
2022-08-27T01:59:54.189Z,18.70
2022-08-27T02:02:21.184Z,18.60
2022-08-27T02:04:48.056Z,18.60
2022-08-27T02:07:14.969Z,18.60
2022-08-27T02:09:41.693Z,18.50
2022-08-27T02:12:09.790Z,18.40
2022-08-27T02:14:36.801Z,18.40
2022-08-27T02:17:04.395Z,18.40
2022-08-27T02:19:31.411Z,18.40
2022-08-27T02:22:00.585Z,18.40
2022-08-27T02:24:28.555Z,18.50
2022-08-27T02:26:55.817Z,18.50
2022-08-27T02:29:23.777Z,18.60
2022-08-27T02:31:50.980Z,18.70
2022-08-27T02:34:18.000Z,18.70
2022-08-27T02:36:45.137Z,18.70
2022-08-27T02:39:12.041Z,18.80
2022-08-27T02:41:38.735Z,18.80
2022-08-27T02:44:10.238Z,18.80
2022-08-27T02:46:39.016Z,18.90
2022-08-27T02:49:06.563Z,18.90
2022-08-27T02:51:33.926Z,18.90
2022-08-27T02:54:02.008Z,18.90
2022-08-27T02:56:29.031Z,18.90
2022-08-27T02:58:58.353Z,18.90
2022-08-27T03:01:25.705Z,18.90
2022-08-27T03:03:52.609Z,19.00
2022-08-27T03:06:19.814Z,18.90
2022-08-27T03:08:52.134Z,18.90
2022-08-27T03:11:19.929Z,19.00
2022-08-27T03:13:46.874Z,19.00
2022-08-27T03:16:13.591Z,19.00
2022-08-27T03:18:41.208Z,19.00
2022-08-27T03:21:08.460Z,19.00
2022-08-27T03:23:36.316Z,19.00
2022-08-27T03:26:04.960Z,19.00
2022-08-27T03:28:33.419Z,19.00
2022-08-27T03:31:02.893Z,19.00
2022-08-27T03:33:34.443Z,19.00
2022-08-27T03:36:01.136Z,19.00
2022-08-27T03:38:27.925Z,19.00
2022-08-27T03:40:55.578Z,19.00
2022-08-27T03:43:22.799Z,19.00
2022-08-27T03:46:01.758Z,19.00
2022-08-27T03:48:30.528Z,18.90
2022-08-27T03:50:57.552Z,18.90
2022-08-27T03:53:24.811Z,18.80
2022-08-27T03:55:51.696Z,18.80
2022-08-27T03:58:19.015Z,18.70
2022-08-27T04:00:46.557Z,18.60
2022-08-27T04:03:14.401Z,18.50
2022-08-27T04:05:45.420Z,18.50
2022-08-27T04:08:12.751Z,18.40
2022-08-27T04:10:40.999Z,18.30
2022-08-27T04:13:07.999Z,18.30
2022-08-27T04:15:34.763Z,18.20
2022-08-27T04:18:07.756Z,18.10
2022-08-27T04:20:36.875Z,18.00
2022-08-27T04:23:04.249Z,18.00
2022-08-27T04:25:55.886Z,18.00
2022-08-27T04:28:22.814Z,18.00
2022-08-27T04:30:50.654Z,18.00
2022-08-27T04:33:17.912Z,18.00
2022-08-27T04:35:46.294Z,18.00
2022-08-27T04:38:13.072Z,18.00
2022-08-27T04:40:58.850Z,18.00
2022-08-27T04:43:28.295Z,17.90
2022-08-27T04:45:55.068Z,18.00
2022-08-27T04:48:22.261Z,18.00
2022-08-27T04:50:49.073Z,18.00
2022-08-27T04:53:16.542Z,18.00
2022-08-27T04:55:45.486Z,18.00
2022-08-27T04:58:12.394Z,18.10
2022-08-27T05:00:43.263Z,18.10
2022-08-27T05:03:10.940Z,18.10
2022-08-27T05:05:38.175Z,18.20
2022-08-27T05:08:11.881Z,18.20
2022-08-27T05:10:47.389Z,18.30
2022-08-27T05:13:14.830Z,18.30
2022-08-27T05:15:43.723Z,18.40
2022-08-27T05:18:10.996Z,18.50
2022-08-27T05:20:49.075Z,18.60
2022-08-27T05:23:17.263Z,18.60
2022-08-27T05:25:46.976Z,18.70
2022-08-27T05:28:14.838Z,18.70
2022-08-27T05:30:44.445Z,18.80
2022-08-27T05:33:21.624Z,18.80
2022-08-27T05:35:52.130Z,18.80
2022-08-27T05:38:19.039Z,18.80
2022-08-27T05:40:48.017Z,18.80
2022-08-27T05:43:16.151Z,18.90
2022-08-27T05:45:44.171Z,18.90
2022-08-27T05:48:12.272Z,19.00
2022-08-27T05:50:39.985Z,19.00
2022-08-27T05:53:06.943Z,19.00
2022-08-27T05:55:37.912Z,19.10
2022-08-27T05:58:06.721Z,19.10
2022-08-27T06:00:52.236Z,19.10
2022-08-27T06:03:18.931Z,19.20
2022-08-27T06:05:45.694Z,19.30
2022-08-27T06:08:12.890Z,19.30
2022-08-27T06:10:41.277Z,19.40
2022-08-27T06:13:08.377Z,19.40
2022-08-27T06:15:35.644Z,19.40
2022-08-27T06:18:03.599Z,19.50
2022-08-27T06:20:30.349Z,19.60
2022-08-27T06:22:57.454Z,19.60
2022-08-27T06:25:24.880Z,19.70
2022-08-27T06:27:51.563Z,19.80
2022-08-27T06:30:18.817Z,19.80
2022-08-27T06:32:45.751Z,19.80
2022-08-27T06:35:12.486Z,19.90
2022-08-27T06:37:39.755Z,19.90
2022-08-27T06:40:07.071Z,20.00
2022-08-27T06:42:34.865Z,20.00
2022-08-27T06:45:04.846Z,20.10
2022-08-27T06:47:32.829Z,20.10
2022-08-27T06:49:59.652Z,20.20
2022-08-27T06:52:26.761Z,20.20
2022-08-27T06:54:54.645Z,20.30
2022-08-27T06:57:24.158Z,20.30
2022-08-27T06:59:51.698Z,20.30
2022-08-27T07:02:18.565Z,20.30
2022-08-27T07:04:45.339Z,20.40
2022-08-27T07:07:13.670Z,20.40
2022-08-27T07:09:40.529Z,20.40
2022-08-27T07:12:07.348Z,20.40
2022-08-27T07:14:38.083Z,20.50
2022-08-27T07:17:06.972Z,20.50
2022-08-27T07:19:41.457Z,20.50
2022-08-27T07:22:08.679Z,20.60
2022-08-27T07:24:35.721Z,20.60
2022-08-27T07:27:03.587Z,20.70
2022-08-27T07:29:32.355Z,20.80
2022-08-27T07:31:59.244Z,20.90
2022-08-27T07:34:26.461Z,21.20
2022-08-27T07:36:53.434Z,21.60
2022-08-27T07:39:20.303Z,21.90
2022-08-27T07:42:06.135Z,22.20
2022-08-27T07:44:34.464Z,22.40
2022-08-27T07:47:04.598Z,22.70
2022-08-27T07:49:35.148Z,22.70
2022-08-27T07:52:03.067Z,22.80
2022-08-27T07:54:29.861Z,22.90
2022-08-27T07:56:57.134Z,22.90
2022-08-27T07:59:26.242Z,22.90
2022-08-27T08:01:54.893Z,22.80
2022-08-27T08:04:25.230Z,22.80
2022-08-27T08:06:52.731Z,22.80
2022-08-27T08:09:22.032Z,22.80
2022-08-27T08:11:49.819Z,22.80
2022-08-27T08:14:17.126Z,22.70
2022-08-27T08:16:43.889Z,22.60
2022-08-27T08:19:11.443Z,22.60
2022-08-27T08:21:39.098Z,22.50
2022-08-27T08:24:06.211Z,22.50
2022-08-27T08:26:34.363Z,22.60
2022-08-27T08:29:04.692Z,22.60
2022-08-27T08:31:31.577Z,22.60
2022-08-27T08:33:58.900Z,22.70
2022-08-27T08:36:25.841Z,22.70
2022-08-27T08:38:53.869Z,22.70
2022-08-27T08:41:42.408Z,22.80
2022-08-27T08:44:14.971Z,22.80
2022-08-27T08:47:03.570Z,22.90
2022-08-27T08:49:36.175Z,22.90
2022-08-27T08:52:31.426Z,23.00
2022-08-27T08:55:03.353Z,23.10
2022-08-27T08:57:33.594Z,23.20
2022-08-27T09:00:12.696Z,23.20
2022-08-27T09:02:40.244Z,23.30
2022-08-27T09:05:09.361Z,23.40
2022-08-27T09:07:45.826Z,23.40
2022-08-27T09:10:34.492Z,23.40
2022-08-27T09:13:03.634Z,23.30
2022-08-27T09:15:33.951Z,23.30
2022-08-27T09:18:14.258Z,23.30
2022-08-27T09:20:45.004Z,23.30
2022-08-27T09:23:26.856Z,23.40
2022-08-27T09:25:53.757Z,23.40
2022-08-27T09:28:40.805Z,23.30
2022-08-27T09:31:15.260Z,23.30
2022-08-27T09:33:56.158Z,23.30
2022-08-27T09:36:24.278Z,23.20
2022-08-27T09:38:58.354Z,23.20
2022-08-27T09:41:28.514Z,23.20
2022-08-27T09:43:59.925Z,23.30
2022-08-27T09:46:27.312Z,23.40
2022-08-27T09:48:54.526Z,23.50
2022-08-27T09:51:29.139Z,23.60
2022-08-27T09:53:58.350Z,23.60
2022-08-27T09:56:29.909Z,23.70
2022-08-27T09:59:07.895Z,23.80
2022-08-27T10:01:36.904Z,23.90
2022-08-27T10:04:10.669Z,24.10
2022-08-27T10:06:38.515Z,24.20
2022-08-27T10:09:13.353Z,24.30
2022-08-27T10:11:59.131Z,24.30
2022-08-27T10:14:31.524Z,24.30
2022-08-27T10:17:16.404Z,24.30
2022-08-27T10:19:46.751Z,24.30
2022-08-27T10:22:26.280Z,24.20
2022-08-27T10:24:59.225Z,24.20
2022-08-27T10:27:46.903Z,24.30
2022-08-27T10:30:29.329Z,24.30
2022-08-27T10:32:56.273Z,24.30
2022-08-27T10:35:26.664Z,24.30
2022-08-27T10:38:10.643Z,24.40
2022-08-27T10:40:37.742Z,24.40
2022-08-27T10:43:20.602Z,24.50
2022-08-27T10:46:00.781Z,24.60
2022-08-27T10:48:41.055Z,24.70
2022-08-27T10:51:31.228Z,24.80
2022-08-27T10:54:06.035Z,24.80
2022-08-27T10:56:32.911Z,24.80
2022-08-27T10:59:08.136Z,24.80
2022-08-27T11:01:49.024Z,24.80
2022-08-27T11:04:21.856Z,24.70
2022-08-27T11:06:50.136Z,24.70
2022-08-27T11:09:32.360Z,24.70
2022-08-27T11:12:16.599Z,24.80
2022-08-27T11:14:47.566Z,24.80
2022-08-27T11:17:26.865Z,25.00
2022-08-27T11:20:02.099Z,25.20
2022-08-27T11:22:41.767Z,25.30
2022-08-27T11:25:19.369Z,25.30
2022-08-27T11:27:47.840Z,25.60
2022-08-27T11:30:25.610Z,25.90
2022-08-27T11:32:56.385Z,26.10
2022-08-27T11:35:32.187Z,26.30
2022-08-27T11:38:10.607Z,26.30
2022-08-27T11:40:38.747Z,26.50
2022-08-27T11:43:10.800Z,26.70
2022-08-27T11:45:39.083Z,26.80
2022-08-27T11:48:35.187Z,27.00
2022-08-27T11:51:04.033Z,26.90
2022-08-27T11:53:34.940Z,26.90
2022-08-27T11:56:36.035Z,26.80
2022-08-27T11:59:21.963Z,27.00
2022-08-27T12:01:50.017Z,26.90
2022-08-27T12:04:26.162Z,26.80
2022-08-27T12:07:02.078Z,26.60
2022-08-27T12:09:29.762Z,26.60
2022-08-27T12:11:59.488Z,26.60
2022-08-27T12:14:32.483Z,26.50
2022-08-27T12:17:09.921Z,26.40
2022-08-27T12:19:36.592Z,26.40
2022-08-27T12:22:22.468Z,26.30
2022-08-27T12:24:59.105Z,26.10
2022-08-27T12:27:34.823Z,26.00
2022-08-27T12:30:05.234Z,26.00
2022-08-27T12:32:38.986Z,25.90
2022-08-27T12:35:11.052Z,25.90
2022-08-27T12:37:40.298Z,26.10
2022-08-27T12:40:19.881Z,26.10
2022-08-27T12:42:48.076Z,26.10
2022-08-27T12:45:25.700Z,26.20
2022-08-27T12:47:54.980Z,26.10
2022-08-27T12:50:27.043Z,26.10
2022-08-27T12:53:02.352Z,26.30
2022-08-27T12:55:49.936Z,26.30
2022-08-27T12:58:35.569Z,26.30
2022-08-27T13:01:11.528Z,26.30
2022-08-27T13:03:40.217Z,26.20
2022-08-27T13:06:18.000Z,26.20
2022-08-27T13:08:45.179Z,26.00
2022-08-27T13:11:22.296Z,26.10
2022-08-27T13:13:50.011Z,26.10
2022-08-27T13:16:17.916Z,26.00
2022-08-27T13:18:49.523Z,26.00
2022-08-27T13:21:22.811Z,26.00
2022-08-27T13:24:10.447Z,26.00
2022-08-27T13:26:38.905Z,26.00
2022-08-27T13:29:06.775Z,26.00
2022-08-27T13:31:34.456Z,26.10
2022-08-27T13:34:03.744Z,26.10
2022-08-27T13:36:35.205Z,26.20
2022-08-27T13:39:03.587Z,26.20
2022-08-27T13:41:33.223Z,26.30
2022-08-27T13:44:08.493Z,26.20
2022-08-27T13:46:42.356Z,26.30
2022-08-27T13:49:14.097Z,26.30
2022-08-27T13:51:42.917Z,26.30
2022-08-27T13:54:13.700Z,26.40
2022-08-27T13:56:43.557Z,26.50
2022-08-27T13:59:19.522Z,26.60
2022-08-27T14:02:01.681Z,26.60
2022-08-27T14:04:39.758Z,26.60
2022-08-27T14:07:07.911Z,26.70
2022-08-27T14:09:34.623Z,26.80
2022-08-27T14:12:03.430Z,26.90
2022-08-27T14:14:31.589Z,27.00
2022-08-27T14:16:59.839Z,27.00
2022-08-27T14:19:33.374Z,27.20
2022-08-27T14:22:04.091Z,27.20
2022-08-27T14:24:31.027Z,27.10
2022-08-27T14:27:04.278Z,26.90
2022-08-27T14:29:31.250Z,26.80
2022-08-27T14:31:58.026Z,26.80
2022-08-27T14:34:24.728Z,26.70
2022-08-27T14:36:54.897Z,26.70
2022-08-27T14:39:26.126Z,26.70
2022-08-27T14:41:54.499Z,26.70
2022-08-27T14:44:22.081Z,26.70
2022-08-27T14:46:49.076Z,26.70
2022-08-27T14:49:21.658Z,26.50
2022-08-27T14:51:49.238Z,26.40
2022-08-27T14:54:18.084Z,26.30
2022-08-27T14:56:45.164Z,26.30
2022-08-27T14:59:13.358Z,26.20
2022-08-27T15:01:40.216Z,26.20
2022-08-27T15:04:07.490Z,26.20
2022-08-27T15:06:34.713Z,26.10
2022-08-27T15:09:02.477Z,26.10
2022-08-27T15:11:31.795Z,26.00
2022-08-27T15:13:59.218Z,26.00
2022-08-27T15:16:38.702Z,25.90
2022-08-27T15:19:07.532Z,25.90
2022-08-27T15:21:35.503Z,25.90
2022-08-27T15:24:13.197Z,25.90
2022-08-27T15:26:39.991Z,25.90
2022-08-27T15:29:07.001Z,25.80
2022-08-27T15:31:35.532Z,25.80
2022-08-27T15:34:06.753Z,25.80
2022-08-27T15:36:33.795Z,25.70
2022-08-27T15:39:00.958Z,25.70
2022-08-27T15:41:29.422Z,25.70
2022-08-27T15:43:57.042Z,25.60
2022-08-27T15:46:25.567Z,25.70
2022-08-27T15:48:52.726Z,25.70
2022-08-27T15:51:24.634Z,25.60
2022-08-27T15:54:01.085Z,25.60
2022-08-27T15:56:31.332Z,25.50
2022-08-27T15:59:00.920Z,25.50
2022-08-27T16:01:33.292Z,25.40
2022-08-27T16:04:00.364Z,25.40
2022-08-27T16:06:27.602Z,25.40
2022-08-27T16:08:54.381Z,25.30
2022-08-27T16:11:23.127Z,25.30
2022-08-27T16:13:51.272Z,25.30
2022-08-27T16:16:22.522Z,25.20
2022-08-27T16:18:49.618Z,25.20
2022-08-27T16:21:17.394Z,25.10
2022-08-27T16:23:44.425Z,25.10
2022-08-27T16:26:11.109Z,25.10
2022-08-27T16:28:38.926Z,25.10
2022-08-27T16:31:10.393Z,25.00
2022-08-27T16:33:43.617Z,24.90
2022-08-27T16:36:11.067Z,24.80
2022-08-27T16:38:38.404Z,24.80
2022-08-27T16:41:05.974Z,24.70
2022-08-27T16:43:33.032Z,24.70
2022-08-27T16:46:00.917Z,24.60
2022-08-27T16:48:46.829Z,24.40
2022-08-27T16:51:24.366Z,24.30
2022-08-27T16:53:51.847Z,24.30
2022-08-27T16:56:28.565Z,24.20
2022-08-27T16:58:57.085Z,24.20
2022-08-27T17:01:24.579Z,24.10
2022-08-27T17:04:08.069Z,24.20
2022-08-27T17:06:37.511Z,24.20
2022-08-27T17:09:07.979Z,24.20
2022-08-27T17:11:36.023Z,24.10
2022-08-27T17:14:03.512Z,24.10
2022-08-27T17:16:33.239Z,24.10
2022-08-27T17:19:03.210Z,24.10
2022-08-27T17:21:30.597Z,24.10
2022-08-27T17:24:01.684Z,24.00
2022-08-27T17:26:32.011Z,23.90
2022-08-27T17:29:03.968Z,23.90
2022-08-27T17:31:36.063Z,23.80
2022-08-27T17:34:12.185Z,23.70
2022-08-27T17:36:39.137Z,23.60
2022-08-27T17:39:06.948Z,23.50
2022-08-27T17:41:36.592Z,23.40
2022-08-27T17:44:05.923Z,23.30
2022-08-27T17:46:32.703Z,23.30
2022-08-27T17:48:59.706Z,23.20
2022-08-27T17:51:27.915Z,23.20
2022-08-27T17:54:01.229Z,23.10
2022-08-27T17:56:30.732Z,23.00
2022-08-27T17:58:57.870Z,22.90
2022-08-27T18:01:30.669Z,22.90
2022-08-27T18:03:59.301Z,22.90
2022-08-27T18:06:29.480Z,22.80
2022-08-27T18:08:56.602Z,22.80
2022-08-27T18:11:24.559Z,22.70
2022-08-27T18:13:54.170Z,22.60
2022-08-27T18:16:21.588Z,22.50
2022-08-27T18:18:50.531Z,22.40
2022-08-27T18:21:46.762Z,22.30
2022-08-27T18:24:17.020Z,22.30
2022-08-27T18:26:46.216Z,22.20
2022-08-27T18:29:14.250Z,22.00
2022-08-27T18:31:49.096Z,22.00
2022-08-27T18:34:20.563Z,21.90
2022-08-27T18:36:48.754Z,21.80
2022-08-27T18:39:19.185Z,21.80
2022-08-27T18:41:51.011Z,21.70
2022-08-27T18:44:23.353Z,21.60
2022-08-27T18:46:50.223Z,21.50
2022-08-27T18:49:17.388Z,21.50
2022-08-27T18:51:48.091Z,21.30
2022-08-27T18:54:19.775Z,21.30
2022-08-27T18:56:46.855Z,21.20
2022-08-27T18:59:13.781Z,21.10
2022-08-27T19:01:40.837Z,21.00
2022-08-27T19:04:08.101Z,20.90
2022-08-27T19:06:37.149Z,20.90
2022-08-27T19:09:04.375Z,20.90
2022-08-27T19:11:31.710Z,20.80
2022-08-27T19:13:58.445Z,20.70
2022-08-27T19:16:45.606Z,20.70
2022-08-27T19:19:13.430Z,20.70
2022-08-27T19:21:40.423Z,20.60
2022-08-27T19:24:07.442Z,20.50
2022-08-27T19:26:34.835Z,20.50
2022-08-27T19:29:01.688Z,20.40
2022-08-27T19:31:29.247Z,20.40
2022-08-27T19:33:56.292Z,20.40
2022-08-27T19:36:24.363Z,20.30
2022-08-27T19:38:55.560Z,20.40
2022-08-27T19:41:27.327Z,20.30
2022-08-27T19:43:55.819Z,20.30
2022-08-27T19:46:23.855Z,20.30
2022-08-27T19:48:51.110Z,20.30
2022-08-27T19:51:19.438Z,20.30
2022-08-27T19:53:46.428Z,20.30
2022-08-27T19:56:14.007Z,20.30
2022-08-27T19:58:42.234Z,20.30
2022-08-27T20:01:14.993Z,20.30
2022-08-27T20:03:49.144Z,20.30
2022-08-27T20:06:21.921Z,20.30
2022-08-27T20:08:50.005Z,20.30
2022-08-27T20:11:18.198Z,20.30
2022-08-27T20:13:50.385Z,20.30
2022-08-27T20:16:17.856Z,20.30
2022-08-27T20:18:49.316Z,20.30
2022-08-27T20:21:16.161Z,20.30
2022-08-27T20:23:43.532Z,20.30
2022-08-27T20:26:16.018Z,20.20
2022-08-27T20:28:43.105Z,20.20
2022-08-27T20:31:10.300Z,20.20
2022-08-27T20:33:37.349Z,20.20
2022-08-27T20:36:06.806Z,20.10
2022-08-27T20:38:35.828Z,20.10
2022-08-27T20:41:03.040Z,20.10
2022-08-27T20:43:29.950Z,20.10
2022-08-27T20:45:57.506Z,20.10
2022-08-27T20:48:24.402Z,20.00
2022-08-27T20:50:51.238Z,20.00
2022-08-27T20:53:22.245Z,20.00
2022-08-27T20:55:49.013Z,20.00
2022-08-27T20:58:34.281Z,19.90
2022-08-27T21:01:01.466Z,20.00
2022-08-27T21:03:29.331Z,19.90
2022-08-27T21:05:58.309Z,19.90
2022-08-27T21:08:25.228Z,19.90
2022-08-27T21:10:54.922Z,19.90
2022-08-27T21:13:22.041Z,19.90
2022-08-27T21:15:49.584Z,19.80
2022-08-27T21:18:22.092Z,19.80
2022-08-27T21:20:57.723Z,19.80
2022-08-27T21:23:26.833Z,19.80
2022-08-27T21:25:55.861Z,19.80
2022-08-27T21:28:22.638Z,19.80
2022-08-27T21:30:49.460Z,19.70
2022-08-27T21:33:16.431Z,19.80
2022-08-27T21:35:43.183Z,19.70
2022-08-27T21:38:10.544Z,19.70
2022-08-27T21:40:37.820Z,19.70
2022-08-27T21:43:08.377Z,19.70
2022-08-27T21:45:35.999Z,19.70
2022-08-27T21:48:02.921Z,19.60
2022-08-27T21:50:29.820Z,19.60
2022-08-27T21:52:58.000Z,19.60
2022-08-27T21:55:26.285Z,19.60
2022-08-27T21:57:53.721Z,19.50
2022-08-27T22:00:30.862Z,19.60
2022-08-27T22:02:57.964Z,19.50
2022-08-27T22:05:25.123Z,19.50
2022-08-27T22:07:52.100Z,19.50
2022-08-27T22:10:20.373Z,19.50
2022-08-27T22:12:47.080Z,19.50
2022-08-27T22:15:15.323Z,19.50
2022-08-27T22:17:42.068Z,19.50
2022-08-27T22:20:09.445Z,19.50
2022-08-27T22:22:36.377Z,19.50
2022-08-27T22:25:03.921Z,19.50
2022-08-27T22:27:31.087Z,19.50
2022-08-27T22:29:58.261Z,19.50
2022-08-27T22:32:25.278Z,19.40
2022-08-27T22:34:54.024Z,19.40
2022-08-27T22:37:21.029Z,19.40
2022-08-27T22:39:53.788Z,19.40
2022-08-27T22:42:25.817Z,19.30
2022-08-27T22:44:54.928Z,19.30
2022-08-27T22:47:21.764Z,19.30
2022-08-27T22:49:48.564Z,19.30
2022-08-27T22:52:21.048Z,19.30
2022-08-27T22:54:54.853Z,19.30
2022-08-27T22:57:29.175Z,19.20
2022-08-27T22:59:56.238Z,19.30
2022-08-27T23:02:25.234Z,19.20
2022-08-27T23:04:55.956Z,19.20
2022-08-27T23:07:24.062Z,19.20
2022-08-27T23:09:51.076Z,19.10
2022-08-27T23:12:19.731Z,19.10
2022-08-27T23:14:46.891Z,19.10
2022-08-27T23:17:16.229Z,19.10
2022-08-27T23:19:43.241Z,19.10
2022-08-27T23:22:10.279Z,19.10
2022-08-27T23:24:57.802Z,19.10
2022-08-27T23:27:30.539Z,19.00
2022-08-27T23:29:58.466Z,19.00
2022-08-27T23:32:25.641Z,19.00
2022-08-27T23:34:52.596Z,19.00
2022-08-27T23:37:19.743Z,19.00
2022-08-27T23:39:46.436Z,19.00
2022-08-27T23:42:18.419Z,19.00
2022-08-27T23:44:45.945Z,19.00
2022-08-27T23:47:12.918Z,19.00
2022-08-27T23:49:39.901Z,18.90
2022-08-27T23:52:08.040Z,19.00
2022-08-27T23:54:34.814Z,19.00
2022-08-27T23:57:01.803Z,19.00
2022-08-27T23:59:30.546Z,19.00
